Portada
METAR-TAF:

METAR-TAF

Aeropuertos :

Aeropuerto de Andorra-La Seu

Seo de Urgel, España

latitud: 42-20-29N, longitud: 001-24-17E, altitud: 802 m

METAR: falta

Hora: 04:35 (03:35 UTC)

Pronóstico

El informe se hizo hace 1 hora y 35 minutos, a las 02:00 UTC
Pronóstico válido del 27 a las 03 UTC al 28 a las 03 UTC
Viento 4 kt con dirección variable
Visibilidad 10 km o más
Nubes dispersas a una altura de 2500 ft
Nubes dispersas a una altura de 6000 ft
Probabilidad 40% :
Temporalmente
del 27 a las 12 UTC al 27 a las 18 UTC
Viento 13 kt del noroeste

TAF: LESU 270200Z 2703/2803 VRB04KT 9999 SCT025 SCT060 TX16/2714Z TN01/2706Z PROB40 TEMPO 2712/2718 31013KT

Observaciones y pronósticos meteorológicos de más de 4000 aeropuertos (mensajes METAR y TAF).

Los puntos amarillos y rojos representan las estaciones disponibles.

Ponga el ratón en el punto deseado para ver el nombre de la estación.

Haga clic para ver las observaciones y los pronósticos meteorológicos.

Para cambiar el mapa : haga clic en los botones verdes con una cruz de color negro para hacer un zoom, en el botón verde con un guión para alejar o en las flechas verdes para mapas adyacentes.


METAR-TAF: